Time;durP1;ratioP1;P1;durP2;ratioP2;P2;SDS_P1;SDS_P2;PMS_P1;PMS_P2;Temp;Humidity;BMP_temperature;BMP_pressure;BME280_temperature;BME280_humidity;BME280_pressure;Samples;Min_cycle;Max_cycle;Signal;HPM_P1;HPM_P2
2020/12/03 00:02:45;;;;;;;132.10;35.50;;;-5.10;99.90;;;;;;4426731;28;659553;-60
2020/12/03 00:05:32;;;;;;;117.60;32.85;;;-5.10;99.90;;;;;;4448818;28;660168;-58
2020/12/03 00:08:20;;;;;;;119.65;33.15;;;-5.10;99.90;;;;;;4439835;28;659639;-59
2020/12/03 00:11:07;;;;;;;129.53;36.37;;;-5.20;99.90;;;;;;4454026;28;661093;-59
2020/12/03 00:13:53;;;;;;;126.90;34.57;;;-5.10;99.90;;;;;;4454020;28;659643;-58
2020/12/03 00:16:41;;;;;;;113.20;32.23;;;-5.20;99.90;;;;;;4436506;28;660904;-59
2020/12/03 00:19:29;;;;;;;115.07;32.07;;;-5.10;99.90;;;;;;4449327;28;661108;-58
2020/12/03 00:22:16;;;;;;;104.33;28.77;;;-5.20;99.90;;;;;;4434076;28;659772;-59
2020/12/03 00:25:03;;;;;;;102.63;30.23;;;-5.20;99.90;;;;;;4456678;28;660947;-59
2020/12/03 00:27:50;;;;;;;101.03;29.37;;;-5.20;99.90;;;;;;4438374;28;661161;-59
2020/12/03 00:30:37;;;;;;;118.60;32.83;;;-5.30;99.90;;;;;;4456179;28;660537;-59
2020/12/03 00:33:24;;;;;;;108.93;31.17;;;-5.30;99.90;;;;;;4437386;28;659896;-60
2020/12/03 00:36:12;;;;;;;106.32;30.20;;;-5.30;99.90;;;;;;4454933;28;661648;-58
2020/12/03 00:39:00;;;;;;;102.75;31.23;;;-5.20;99.90;;;;;;4437882;28;659714;-59
2020/12/03 00:41:50;;;;;;;90.45;28.88;;;-5.30;99.90;;;;;;4456797;28;660795;-59
2020/12/03 00:44:37;;;;;;;91.88;27.98;;;-5.30;99.90;;;;;;4435768;28;658537;-58
2020/12/03 00:47:25;;;;;;;84.47;25.40;;;-5.30;99.90;;;;;;4437583;28;658062;-59
2020/12/03 00:50:12;;;;;;;111.37;30.43;;;-5.30;99.90;;;;;;4461629;28;659612;-58
2020/12/03 00:53:01;;;;;;;100.30;29.58;;;-5.30;99.90;;;;;;4442588;28;659519;-59
2020/12/03 00:55:48;;;;;;;103.30;30.13;;;-5.30;99.90;;;;;;4457283;28;660062;-59
2020/12/03 00:58:35;;;;;;;104.80;29.97;;;-5.30;99.90;;;;;;4445347;28;659645;-59
2020/12/03 01:01:22;;;;;;;105.43;30.37;;;-5.40;99.90;;;;;;4467076;28;660378;-58
2020/12/03 01:04:08;;;;;;;110.20;31.27;;;-5.40;99.90;;;;;;4445649;28;660264;-59
2020/12/03 01:06:56;;;;;;;109.10;30.65;;;-5.50;99.90;;;;;;4434045;28;659581;-59
2020/12/03 01:09:43;;;;;;;65.43;20.00;;;-5.50;99.90;;;;;;4456503;28;660972;-58
2020/12/03 01:12:31;;;;;;;99.78;30.13;;;-5.50;99.90;;;;;;4439711;28;658568;-58
2020/12/03 01:15:18;;;;;;;92.73;26.90;;;-5.50;99.90;;;;;;4450054;28;659930;-58
2020/12/03 01:18:05;;;;;;;88.53;27.33;;;-5.50;99.90;;;;;;4439304;28;658407;-59
2020/12/03 01:20:52;;;;;;;105.63;29.47;;;-5.60;99.90;;;;;;4456958;28;662162;-59
2020/12/03 01:23:39;;;;;;;96.63;28.23;;;-5.60;99.90;;;;;;4446135;28;660270;-59
2020/12/03 01:26:27;;;;;;;94.18;27.48;;;-5.60;99.90;;;;;;4454208;28;658804;-59
2020/12/03 01:29:16;;;;;;;90.73;27.43;;;-5.60;99.90;;;;;;4443019;28;658548;-59
2020/12/03 01:32:03;;;;;;;109.47;28.63;;;-5.50;99.90;;;;;;4457413;28;659686;-59
2020/12/03 01:34:50;;;;;;;101.80;30.03;;;-5.50;99.90;;;;;;4436162;28;659704;-60
2020/12/03 01:37:37;;;;;;;85.67;23.83;;;-5.50;99.90;;;;;;4459310;28;660522;-59
2020/12/03 01:40:24;;;;;;;97.27;27.70;;;-5.40;99.90;;;;;;4454942;28;659369;-58
2020/12/03 01:43:12;;;;;;;82.17;23.00;;;-5.30;99.90;;;;;;4446536;28;659832;-59
2020/12/03 01:46:00;;;;;;;106.15;30.17;;;-5.30;99.90;;;;;;4438215;28;658552;-60
2020/12/03 01:48:48;;;;;;;107.60;29.53;;;-5.30;99.90;;;;;;4451445;28;661251;-58
2020/12/03 01:51:36;;;;;;;108.27;29.03;;;-5.40;99.90;;;;;;4435928;28;659887;-58
2020/12/03 01:54:23;;;;;;;89.30;25.17;;;-5.40;99.90;;;;;;4451663;28;659742;-58
2020/12/03 01:57:33;;;;;;;101.90;27.40;;;-5.50;99.90;;;;;;4436661;28;659528;-58
2020/12/03 02:00:21;;;;;;;102.03;28.17;;;-5.50;99.90;;;;;;4434041;28;659931;-59
2020/12/03 02:03:08;;;;;;;108.57;28.73;;;-5.60;99.90;;;;;;4449018;28;659726;-58
2020/12/03 02:05:55;;;;;;;104.00;27.27;;;-5.60;99.90;;;;;;4446579;28;659612;-58
2020/12/03 02:08:42;;;;;;;58.43;17.33;;;-5.60;99.90;;;;;;4463608;28;660660;-58
2020/12/03 02:11:29;;;;;;;95.35;28.10;;;-5.60;99.90;;;;;;4443595;28;658419;-59
2020/12/03 02:14:16;;;;;;;106.60;30.00;;;-5.50;99.90;;;;;;4463817;28;659630;-59
2020/12/03 02:17:04;;;;;;;117.22;30.48;;;-5.40;99.90;;;;;;4458423;28;659768;-59
2020/12/03 02:19:57;;;;;;;170.77;32.70;;;-5.50;99.90;;;;;;4439784;28;661918;-59
2020/12/03 02:22:44;;;;;;;92.47;27.10;;;-5.50;99.90;;;;;;4439878;28;659710;-58
2020/12/03 02:25:31;;;;;;;87.93;25.90;;;-5.50;99.90;;;;;;4439637;28;658578;-60
2020/12/03 02:28:18;;;;;;;101.67;28.67;;;-5.50;99.90;;;;;;4463710;28;658572;-59
2020/12/03 02:31:05;;;;;;;107.93;28.70;;;-5.50;99.90;;;;;;4442555;28;660283;-58
2020/12/03 02:33:52;;;;;;;117.90;31.70;;;-5.60;99.90;;;;;;4466896;28;660455;-58
2020/12/03 02:36:40;;;;;;;106.73;28.50;;;-5.60;99.90;;;;;;4442117;28;659682;-59
2020/12/03 02:39:28;;;;;;;85.30;23.40;;;-5.70;99.90;;;;;;4448834;28;661812;-58
2020/12/03 02:42:15;;;;;;;95.43;26.77;;;-5.70;99.90;;;;;;4448608;28;659875;-59
2020/12/03 02:45:02;;;;;;;92.30;26.00;;;-5.60;99.90;;;;;;4457416;28;659700;-58
2020/12/03 02:47:49;;;;;;;99.30;29.03;;;-5.70;99.90;;;;;;4449602;28;658446;-60
2020/12/03 02:50:36;;;;;;;109.87;28.47;;;-5.70;99.90;;;;;;4449854;28;658793;-58
2020/12/03 02:53:24;;;;;;;105.03;31.07;;;-5.80;99.90;;;;;;4455241;28;660260;-58
2020/12/03 02:56:11;;;;;;;117.60;30.50;;;-5.80;99.90;;;;;;4436105;28;660725;-58
2020/12/03 02:58:58;;;;;;;107.37;28.63;;;-5.80;99.90;;;;;;4457051;28;659992;-59
2020/12/03 03:01:45;;;;;;;116.10;31.10;;;-5.80;99.90;;;;;;4433553;28;659671;-58
2020/12/03 03:04:32;;;;;;;121.17;32.00;;;-5.80;99.90;;;;;;4458455;28;661477;-59
2020/12/03 03:07:20;;;;;;;120.10;33.38;;;-5.80;99.90;;;;;;4440155;28;659566;-59
2020/12/03 03:10:07;;;;;;;112.85;30.50;;;-5.80;99.90;;;;;;4454879;28;659426;-57
2020/12/03 03:12:54;;;;;;;124.68;32.75;;;-5.80;99.90;;;;;;4437092;28;659745;-59
2020/12/03 03:15:41;;;;;;;94.13;27.73;;;-5.80;99.90;;;;;;4462317;28;659957;-59
2020/12/03 03:18:29;;;;;;;118.23;33.23;;;-5.80;99.90;;;;;;4460492;28;659091;-59
2020/12/03 03:21:16;;;;;;;103.03;31.43;;;-5.80;99.90;;;;;;4429921;28;659784;-59
2020/12/03 03:24:03;;;;;;;117.37;31.47;;;-5.80;99.90;;;;;;4458900;28;660118;-58
2020/12/03 03:26:51;;;;;;;114.67;32.10;;;-5.80;99.90;;;;;;4439719;28;659447;-58
2020/12/03 03:29:38;;;;;;;114.93;32.93;;;-5.80;99.90;;;;;;4465753;28;660466;-59
2020/12/03 03:32:25;;;;;;;119.03;33.37;;;-5.80;99.90;;;;;;4431408;28;659964;-58
2020/12/03 03:35:14;;;;;;;108.33;32.67;;;-5.90;99.90;;;;;;4457064;28;660872;-57
2020/12/03 03:38:01;;;;;;;116.20;32.03;;;-5.90;99.90;;;;;;4439467;28;661238;-58
2020/12/03 03:40:48;;;;;;;119.00;32.73;;;-5.90;99.90;;;;;;4462415;28;658747;-60
2020/12/03 03:43:36;;;;;;;115.03;30.03;;;-6.00;99.90;;;;;;4434730;28;659539;-58
2020/12/03 03:46:23;;;;;;;110.37;31.30;;;-5.90;99.90;;;;;;4454177;28;659868;-59
2020/12/03 03:49:10;;;;;;;114.33;32.77;;;-6.00;99.90;;;;;;4430834;28;659630;-59
2020/12/03 03:51:57;;;;;;;101.22;27.38;;;-5.90;99.90;;;;;;4457196;28;661106;-59
2020/12/03 03:54:44;;;;;;;109.80;30.70;;;-5.90;99.90;;;;;;4438022;28;659784;-59
2020/12/03 03:57:31;;;;;;;111.30;32.77;;;-6.00;99.90;;;;;;4457099;28;660878;-59
2020/12/03 04:00:19;;;;;;;106.53;31.30;;;-6.00;99.90;;;;;;4453017;28;659945;-59
2020/12/03 04:03:07;;;;;;;114.80;33.03;;;-6.00;99.90;;;;;;4426694;28;661496;-58
2020/12/03 04:05:55;;;;;;;113.60;31.77;;;-6.10;99.90;;;;;;4421852;28;659576;-59
2020/12/03 04:08:42;;;;;;;114.03;32.53;;;-6.10;99.90;;;;;;4451201;28;660924;-58
2020/12/03 04:11:29;;;;;;;119.63;33.23;;;-6.10;99.90;;;;;;4449403;28;659706;-58
2020/12/03 04:14:16;;;;;;;121.93;32.33;;;-6.00;99.90;;;;;;4438330;28;659614;-59
2020/12/03 04:17:07;;;;;;;103.73;32.50;;;-6.00;99.90;;;;;;4451125;28;660138;-59
2020/12/03 04:19:54;;;;;;;123.05;34.97;;;-6.00;99.90;;;;;;4430228;28;659943;-59
2020/12/03 04:22:41;;;;;;;123.67;35.43;;;-5.90;99.90;;;;;;4461111;28;661270;-59
2020/12/03 04:25:28;;;;;;;116.67;34.53;;;-5.90;99.90;;;;;;4454059;28;660761;-58
2020/12/03 04:28:15;;;;;;;116.82;34.17;;;-5.90;99.90;;;;;;4428789;28;660653;-58
2020/12/03 04:31:02;;;;;;;117.90;33.72;;;-5.90;99.90;;;;;;4448352;28;660219;-59
2020/12/03 04:33:50;;;;;;;107.30;32.73;;;-5.90;99.90;;;;;;4423404;28;659529;-60
2020/12/03 04:36:37;;;;;;;113.63;33.30;;;-5.80;99.90;;;;;;4446159;28;661273;-58
2020/12/03 04:39:24;;;;;;;108.90;31.85;;;-5.70;99.90;;;;;;4425544;28;661019;-59
2020/12/03 04:42:19;;;;;;;98.35;30.33;;;-5.70;99.90;;;;;;4447164;28;659661;-58
2020/12/03 04:45:13;;;;;;;120.82;30.33;;;-5.70;99.90;;;;;;4430067;28;659901;-59
2020/12/03 04:48:08;;;;;;;67.13;18.90;;;-5.50;99.90;;;;;;4421589;28;659701;-59
2020/12/03 04:51:01;;;;;;;101.63;30.97;;;-5.20;99.90;;;;;;4447797;28;658641;-58
2020/12/03 04:53:53;;;;;;;98.37;30.57;;;-5.00;99.90;;;;;;4442785;28;659829;-58
2020/12/03 04:56:43;;;;;;;109.77;34.30;;;-5.10;99.90;;;;;;4440441;28;658796;-59
2020/12/03 04:59:48;;;;;;;119.17;34.93;;;-5.10;99.90;;;;;;4432385;28;659571;-57
2020/12/03 05:03:05;;;;;;;101.20;30.85;;;-5.20;99.90;;;;;;4419304;28;660870;-59
2020/12/03 05:05:57;;;;;;;107.60;32.40;;;-5.10;99.90;;;;;;4437528;28;661213;-59
2020/12/03 05:08:52;;;;;;;117.20;32.80;;;-5.20;99.90;;;;;;4441008;28;659750;-59
2020/12/03 05:11:39;;;;;;;108.97;32.47;;;-5.10;99.90;;;;;;4442780;28;660342;-58
2020/12/03 05:14:34;;;;;;;113.37;32.67;;;-5.20;99.90;;;;;;4438829;28;660546;-59
2020/12/03 05:17:41;;;;;;;119.07;32.50;;;-5.30;99.90;;;;;;4402471;28;660886;-58
2020/12/03 05:20:48;;;;;;;109.13;31.23;;;-5.40;99.90;;;;;;4418037;28;659400;-58
2020/12/03 05:23:35;;;;;;;113.27;30.63;;;-5.40;99.90;;;;;;4409298;28;660996;-60
2020/12/03 05:26:26;;;;;;;120.47;35.43;;;-5.50;99.90;;;;;;4451032;28;660350;-58
2020/12/03 05:29:13;;;;;;;109.30;30.17;;;-5.50;99.90;;;;;;4432902;28;660514;-58
2020/12/03 05:32:00;;;;;;;114.87;33.87;;;-5.50;99.90;;;;;;4436404;28;659981;-59
2020/12/03 05:34:47;;;;;;;119.33;33.37;;;-5.50;99.90;;;;;;4459358;28;661867;-59
2020/12/03 05:37:35;;;;;;;112.70;34.83;;;-5.50;99.90;;;;;;4455982;28;659720;-59
2020/12/03 05:40:23;;;;;;;120.73;35.77;;;-5.60;99.90;;;;;;4460430;28;661344;-58
2020/12/03 05:43:11;;;;;;;101.75;31.83;;;-5.50;99.90;;;;;;4441365;28;659693;-59
2020/12/03 05:45:58;;;;;;;99.27;32.40;;;-5.50;99.90;;;;;;4461009;28;660041;-59
2020/12/03 05:48:56;;;;;;;116.23;34.03;;;-5.50;99.90;;;;;;4442577;28;660067;-58
2020/12/03 05:51:43;;;;;;;124.00;34.23;;;-5.50;99.90;;;;;;4430498;28;660021;-59
2020/12/03 05:54:30;;;;;;;113.87;32.83;;;-5.50;99.90;;;;;;4432278;28;659548;-59
2020/12/03 05:57:21;;;;;;;112.10;33.40;;;-5.50;99.90;;;;;;4458612;28;661108;-58
2020/12/03 06:00:20;;;;;;;136.30;38.73;;;-5.60;99.90;;;;;;4431237;28;659400;-58
2020/12/03 06:03:32;;;;;;;130.17;35.90;;;-5.60;99.90;;;;;;4412734;28;660264;-58
2020/12/03 06:06:52;;;;;;;140.07;39.27;;;-5.60;99.90;;;;;;4437033;28;659545;-58
2020/12/03 06:09:56;;;;;;;142.70;39.10;;;-5.60;99.90;;;;;;4378719;28;659619;-58
2020/12/03 06:13:02;;;;;;;131.73;38.27;;;-5.60;99.90;;;;;;4369699;28;660869;-58
2020/12/03 06:15:52;;;;;;;146.27;40.50;;;-5.60;99.90;;;;;;4359166;28;659729;-60
2020/12/03 06:19:02;;;;;;;157.53;42.77;;;-5.60;99.90;;;;;;4386298;28;659634;-60
2020/12/03 06:22:12;;;;;;;127.78;37.30;;;-5.50;99.90;;;;;;4355599;28;659618;-59
2020/12/03 06:25:21;;;;;;;117.10;33.40;;;-5.40;99.90;;;;;;4359963;28;659964;-60
2020/12/03 06:28:26;;;;;;;129.00;38.33;;;-5.40;99.90;;;;;;4380813;28;659367;-59
2020/12/03 06:31:23;;;;;;;129.87;37.13;;;-5.30;99.90;;;;;;4367324;28;659363;-59
2020/12/03 06:34:16;;;;;;;125.97;37.40;;;-5.40;99.90;;;;;;4383790;28;661140;-58
2020/12/03 06:37:05;;;;;;;126.60;36.00;;;-5.40;99.90;;;;;;4377775;28;661581;-60
2020/12/03 06:39:57;;;;;;;133.97;37.67;;;-5.40;99.90;;;;;;4379247;28;661218;-58
2020/12/03 06:42:46;;;;;;;132.73;38.30;;;-5.40;99.90;;;;;;4367130;28;659649;-58
2020/12/03 06:45:35;;;;;;;129.00;37.50;;;-5.40;99.90;;;;;;4379271;28;660992;-59
2020/12/03 06:48:37;;;;;;;130.23;37.70;;;-5.40;99.90;;;;;;4375275;28;660788;-59
2020/12/03 06:51:49;;;;;;;126.80;37.45;;;-5.40;99.90;;;;;;4425189;28;660403;-60
2020/12/03 06:54:55;;;;;;;123.13;37.60;;;-5.40;99.90;;;;;;4405418;28;661331;-59
2020/12/03 06:58:20;;;;;;;132.80;37.70;;;-5.40;99.90;;;;;;4439894;27;660510;-57
2020/12/03 07:01:21;;;;;;;122.00;36.77;;;-5.30;99.90;;;;;;4327251;28;661291;-59
2020/12/03 07:04:23;;;;;;;130.90;35.67;;;-5.30;99.90;;;;;;4350385;28;660245;-58
2020/12/03 07:07:29;;;;;;;119.80;37.33;;;-5.20;99.90;;;;;;4333362;28;659951;-59
2020/12/03 07:10:55;;;;;;;122.43;38.27;;;-5.20;99.90;;;;;;4332348;28;660174;-58
2020/12/03 07:14:34;;;;;;;132.00;38.87;;;-5.10;99.90;;;;;;4327712;28;661467;-58
2020/12/03 07:17:57;;;;;;;131.70;38.50;;;-5.00;99.90;;;;;;4265287;29;660037;-58
2020/12/03 07:21:10;;;;;;;158.10;45.90;;;-4.80;99.90;;;;;;4271902;29;659644;-59
2020/12/03 07:24:00;;;;;;;150.95;45.63;;;-4.70;99.90;;;;;;4286876;29;660414;-58
2020/12/03 07:27:05;;;;;;;130.43;40.73;;;-4.50;99.90;;;;;;4287454;29;660195;-57
2020/12/03 07:29:56;;;;;;;141.87;40.53;;;-4.50;99.90;;;;;;4287723;29;660478;-58
2020/12/03 07:32:49;;;;;;;119.93;35.77;;;-4.20;99.90;;;;;;4287737;29;661137;-59
2020/12/03 07:35:38;;;;;;;125.70;35.77;;;-4.10;99.90;;;;;;4267427;29;661112;-58
2020/12/03 07:38:30;;;;;;;111.70;33.93;;;-4.10;99.90;;;;;;4289127;29;659486;-59
2020/12/03 07:41:18;;;;;;;116.93;34.47;;;-3.90;99.90;;;;;;4325369;28;661444;-58
2020/12/03 07:44:17;;;;;;;108.43;33.47;;;-3.70;99.90;;;;;;4357956;28;659632;-59
2020/12/03 07:47:30;;;;;;;117.63;37.80;;;-3.50;99.90;;;;;;4376845;28;659832;-60
2020/12/03 07:50:50;;;;;;;104.03;34.83;;;-3.30;99.90;;;;;;4354639;28;660636;-58
2020/12/03 07:53:38;;;;;;;101.37;31.47;;;-3.10;99.90;;;;;;4326847;28;661066;-58
2020/12/03 07:56:36;;;;;;;100.40;31.30;;;-3.10;99.90;;;;;;4370388;28;660313;-59
2020/12/03 07:59:28;;;;;;;98.13;32.50;;;-3.10;99.90;;;;;;4440625;27;659947;-58
2020/12/03 08:02:50;;;;;;;111.10;34.87;;;-3.10;99.90;;;;;;4405977;28;660301;-59
2020/12/03 08:05:56;;;;;;;130.40;36.57;;;-3.00;99.90;;;;;;4414329;28;660494;-58
2020/12/03 08:08:45;;;;;;;136.90;41.77;;;-3.00;99.90;;;;;;4435131;28;659578;-59
2020/12/03 08:11:44;;;;;;;114.93;36.00;;;-2.70;99.90;;;;;;4427639;27;660666;-58
2020/12/03 08:14:42;;;;;;;100.07;31.57;;;-2.50;99.90;;;;;;4413248;28;660370;-60
2020/12/03 08:17:56;;;;;;;100.25;31.50;;;-1.70;99.90;;;;;;4423620;28;659746;-60
2020/12/03 08:20:44;;;;;;;99.70;32.60;;;-1.20;99.90;;;;;;4440696;28;659890;-58
2020/12/03 08:23:31;;;;;;;113.00;36.50;;;-1.10;99.90;;;;;;4445989;28;659802;-58
2020/12/03 08:26:31;;;;;;;119.23;39.27;;;-1.10;99.90;;;;;;4468927;28;659621;-58
2020/12/03 08:29:25;;;;;;;126.83;41.93;;;-1.20;99.90;;;;;;4430458;28;661153;-59
2020/12/03 08:32:12;;;;;;;129.25;42.10;;;-1.30;99.90;;;;;;4437143;28;659943;-58
2020/12/03 08:35:00;;;;;;;107.57;36.87;;;-1.50;99.90;;;;;;4444861;28;659659;-61
2020/12/03 08:37:48;;;;;;;107.63;36.33;;;-1.60;99.90;;;;;;4450705;28;661482;-58
2020/12/03 08:40:36;;;;;;;114.97;37.20;;;-1.60;99.90;;;;;;4439842;28;660759;-58
2020/12/03 08:43:23;;;;;;;107.73;38.03;;;-1.80;99.90;;;;;;4448723;28;659285;-58
2020/12/03 08:46:14;;;;;;;107.03;34.67;;;-1.70;99.90;;;;;;4435290;28;659547;-58
2020/12/03 08:49:05;;;;;;;102.45;34.50;;;-1.80;99.90;;;;;;4452179;28;661017;-58
2020/12/03 08:51:56;;;;;;;90.00;33.87;;;-1.80;99.90;;;;;;4436179;28;660499;-59
2020/12/03 08:54:43;;;;;;;101.47;34.27;;;-1.90;99.90;;;;;;4442778;28;659957;-58
2020/12/03 08:57:30;;;;;;;94.63;31.63;;;-2.10;99.90;;;;;;4437416;28;659543;-59
2020/12/03 09:00:17;;;;;;;94.53;31.57;;;-2.10;99.90;;;;;;4466290;28;660225;-58
2020/12/03 09:03:05;;;;;;;101.07;33.20;;;-2.10;99.90;;;;;;4418348;28;658732;-60
2020/12/03 09:05:52;;;;;;;103.43;32.97;;;-2.00;99.90;;;;;;4458456;28;660991;-59
2020/12/03 09:08:40;;;;;;;99.32;34.80;;;-2.00;99.90;;;;;;4449650;28;659612;-60
2020/12/03 09:11:27;;;;;;;114.35;34.08;;;-2.00;99.90;;;;;;4459564;28;660621;-58
2020/12/03 09:14:14;;;;;;;112.75;36.97;;;-2.00;99.90;;;;;;4433452;28;661132;-60
2020/12/03 09:17:04;;;;;;;114.63;39.10;;;-1.90;99.90;;;;;;4460649;28;659674;-59
2020/12/03 09:19:51;;;;;;;117.17;39.27;;;-1.80;99.90;;;;;;4434211;28;660625;-58
2020/12/03 09:22:39;;;;;;;116.87;40.13;;;-1.70;99.90;;;;;;4462168;28;660001;-59
2020/12/03 09:25:27;;;;;;;113.30;38.80;;;-1.70;99.90;;;;;;4438011;28;660051;-59
2020/12/03 09:28:14;;;;;;;94.87;33.80;;;-1.50;99.90;;;;;;4459521;28;659896;-58
2020/12/03 09:31:02;;;;;;;94.63;32.83;;;-1.40;99.90;;;;;;4442527;28;659874;-59
2020/12/03 09:33:50;;;;;;;95.17;32.20;;;-1.30;99.90;;;;;;4445241;28;659915;-60
2020/12/03 09:36:38;;;;;;;93.37;32.37;;;-1.20;99.90;;;;;;4457994;28;660378;-59
2020/12/03 09:39:26;;;;;;;89.83;32.83;;;-1.20;99.90;;;;;;4440352;28;659514;-59
2020/12/03 09:42:16;;;;;;;93.97;31.00;;;-1.30;99.90;;;;;;4457149;28;658933;-58
2020/12/03 09:45:10;;;;;;;107.18;35.67;;;-1.30;99.90;;;;;;4435957;28;658949;-59
2020/12/03 09:47:57;;;;;;;89.13;30.37;;;-1.20;99.90;;;;;;4441057;28;659993;-58
2020/12/03 09:50:45;;;;;;;77.37;28.43;;;-1.30;99.90;;;;;;4451271;28;658711;-60
2020/12/03 09:53:33;;;;;;;84.33;31.50;;;-1.30;99.90;;;;;;4465916;28;660016;-58
2020/12/03 09:56:20;;;;;;;90.57;31.10;;;-1.10;99.90;;;;;;4442287;28;658598;-59
2020/12/03 09:59:08;;;;;;;94.90;32.17;;;-1.00;99.90;;;;;;4458408;28;660559;-59
2020/12/03 10:02:06;;;;;;;97.30;34.47;;;-0.80;99.90;;;;;;4446790;28;658502;-59
2020/12/03 10:05:01;;;;;;;92.87;32.27;;;-0.70;99.90;;;;;;4440993;28;658639;-58
2020/12/03 10:08:06;;;;;;;95.33;33.37;;;-0.60;99.90;;;;;;4445026;28;658586;-58
2020/12/03 10:11:00;;;;;;;88.50;31.00;;;-0.60;99.90;;;;;;4441947;28;659369;-59
2020/12/03 10:14:03;;;;;;;88.73;32.07;;;-0.40;99.90;;;;;;4427606;28;659552;-58
2020/12/03 10:16:51;;;;;;;90.43;32.20;;;-0.40;99.90;;;;;;4421665;28;660296;-58
2020/12/03 10:19:40;;;;;;;94.73;34.63;;;-0.30;99.90;;;;;;4461763;28;658709;-58
2020/12/03 10:22:30;;;;;;;98.43;33.10;;;-0.30;99.90;;;;;;4444997;28;659508;-59
2020/12/03 10:25:18;;;;;;;72.63;28.57;;;-0.40;99.90;;;;;;4439516;28;660181;-59
2020/12/03 10:28:15;;;;;;;87.67;31.37;;;-0.40;99.90;;;;;;4449174;28;659381;-59
2020/12/03 10:31:02;;;;;;;80.20;29.97;;;-0.30;99.90;;;;;;4439721;28;658845;-58
2020/12/03 10:33:51;;;;;;;87.90;31.77;;;-0.20;99.90;;;;;;4460200;28;658802;-60
2020/12/03 10:36:44;;;;;;;89.20;34.07;;;-0.10;99.90;;;;;;4463767;28;658900;-58
2020/12/03 10:39:35;;;;;;;104.03;36.67;;;0.00;99.90;;;;;;4420659;28;659323;-59
2020/12/03 10:42:26;;;;;;;102.05;38.33;;;0.20;99.90;;;;;;4441342;28;659671;-58
2020/12/03 10:45:16;;;;;;;115.37;43.07;;;0.30;99.90;;;;;;4444363;28;659951;-59
2020/12/03 10:48:10;;;;;;;123.83;44.63;;;0.20;99.90;;;;;;4445574;27;658901;-59
2020/12/03 10:50:59;;;;;;;126.77;44.83;;;0.20;99.90;;;;;;4436998;28;660052;-58
2020/12/03 10:53:47;;;;;;;110.87;41.83;;;0.20;99.90;;;;;;4442398;28;659717;-58
2020/12/03 10:56:37;;;;;;;85.07;35.78;;;0.20;99.90;;;;;;4451651;28;659267;-61
2020/12/03 10:59:38;;;;;;;110.97;40.80;;;0.20;99.90;;;;;;4466374;28;658441;-59
2020/12/03 11:02:27;;;;;;;128.60;46.00;;;0.20;99.90;;;;;;4413334;28;659077;-59
2020/12/03 11:05:16;;;;;;;109.03;43.00;;;0.30;99.90;;;;;;4444713;28;659480;-60
2020/12/03 11:08:04;;;;;;;118.10;42.97;;;0.30;99.90;;;;;;4460112;28;659238;-58
2020/12/03 11:10:54;;;;;;;114.17;44.57;;;0.40;99.90;;;;;;4441713;27;660040;-58
2020/12/03 11:13:42;;;;;;;109.80;41.70;;;0.30;99.90;;;;;;4434806;28;659717;-58
2020/12/03 11:16:32;;;;;;;103.63;41.03;;;0.20;99.90;;;;;;4459379;28;660138;-60
2020/12/03 11:19:19;;;;;;;105.03;39.37;;;0.10;99.90;;;;;;4458959;28;658495;-59
2020/12/03 11:22:19;;;;;;;105.37;38.57;;;0.20;99.90;;;;;;4436434;28;660222;-59
2020/12/03 11:25:07;;;;;;;106.93;40.73;;;0.20;99.90;;;;;;4408715;28;660551;-59
2020/12/03 11:27:55;;;;;;;110.93;42.53;;;0.10;99.90;;;;;;4447410;28;659872;-61
2020/12/03 11:30:47;;;;;;;112.10;42.37;;;0.00;99.90;;;;;;4460129;28;659446;-58
2020/12/03 11:33:36;;;;;;;107.03;38.37;;;-0.10;99.90;;;;;;4429782;28;659969;-60
2020/12/03 11:36:24;;;;;;;107.57;37.93;;;-0.10;99.90;;;;;;4463829;28;659406;-58
2020/12/03 11:39:11;;;;;;;86.83;30.97;;;-0.20;99.90;;;;;;4442630;28;659831;-58
2020/12/03 11:42:21;;;;;;;81.87;31.50;;;-0.10;99.90;;;;;;4467006;28;660685;-59
2020/12/03 11:48:29;;;;;;;98.47;34.03;;;-0.20;99.90;;;;;;4441608;27;659042;-58
2020/12/03 11:51:26;;;;;;;94.57;35.30;;;-0.20;99.90;;;;;;4417869;28;658638;-58
2020/12/03 11:54:15;;;;;;;98.82;39.03;;;-0.30;99.90;;;;;;4438353;28;660120;-58
2020/12/03 11:57:06;;;;;;;91.63;34.97;;;-0.30;99.90;;;;;;4436437;28;659644;-58
2020/12/03 11:59:54;;;;;;;105.40;37.57;;;-0.40;99.90;;;;;;4440094;28;659232;-58
2020/12/03 12:02:41;;;;;;;85.33;32.67;;;-0.50;99.90;;;;;;4443449;28;659857;-59
2020/12/03 12:05:37;;;;;;;90.33;35.53;;;-0.50;99.90;;;;;;4458485;28;659398;-58
2020/12/03 12:08:31;;;;;;;108.13;41.57;;;-0.60;99.90;;;;;;4424240;28;658469;-60
2020/12/03 12:11:21;;;;;;;104.57;38.37;;;-0.50;99.90;;;;;;4439983;28;660393;-59
2020/12/03 12:14:09;;;;;;;113.17;41.40;;;-0.50;99.90;;;;;;4442353;28;660973;-58
2020/12/03 12:16:57;;;;;;;110.87;40.37;;;-0.50;99.90;;;;;;4436887;28;660924;-58
2020/12/03 12:19:46;;;;;;;131.68;45.45;;;-0.50;99.90;;;;;;4448868;28;659665;-60
2020/12/03 12:22:33;;;;;;;127.77;45.53;;;-0.50;99.90;;;;;;4464255;28;659463;-58
2020/12/03 12:25:20;;;;;;;112.63;42.80;;;-0.50;99.90;;;;;;4440551;28;660222;-60
2020/12/03 12:28:07;;;;;;;117.90;42.00;;;-0.50;99.90;;;;;;4464983;28;660677;-59
2020/12/03 12:30:54;;;;;;;100.40;38.08;;;-0.50;99.90;;;;;;4448767;28;659710;-60
2020/12/03 12:33:42;;;;;;;111.70;40.88;;;-0.60;99.90;;;;;;4426222;28;659911;-59
2020/12/03 12:36:29;;;;;;;114.53;41.27;;;-0.60;99.90;;;;;;4447935;28;660348;-60
2020/12/03 12:39:16;;;;;;;112.57;43.63;;;-0.60;99.90;;;;;;4463185;28;661440;-60
2020/12/03 12:42:04;;;;;;;110.90;40.83;;;-0.60;99.90;;;;;;4464080;28;659276;-59
2020/12/03 12:44:51;;;;;;;121.37;45.37;;;-0.50;99.90;;;;;;4436947;28;661766;-58
2020/12/03 12:47:38;;;;;;;227.77;75.50;;;-0.50;99.90;;;;;;4461500;28;659291;-58
2020/12/03 12:50:26;;;;;;;249.03;83.80;;;-0.50;99.90;;;;;;4436354;28;659658;-59
2020/12/03 12:53:13;;;;;;;118.73;41.07;;;-0.50;99.90;;;;;;4457213;28;660423;-59
2020/12/03 12:56:00;;;;;;;119.83;41.43;;;-0.50;99.90;;;;;;4436549;28;661157;-59
2020/12/03 12:58:47;;;;;;;132.43;48.30;;;-0.50;99.90;;;;;;4459791;28;660674;-59
2020/12/03 13:01:34;;;;;;;106.57;41.33;;;-0.50;99.90;;;;;;4451409;28;659804;-61
2020/12/03 13:04:22;;;;;;;86.57;35.57;;;-0.50;99.90;;;;;;4454839;28;659417;-59
2020/12/03 13:07:10;;;;;;;90.30;35.50;;;-0.40;99.90;;;;;;4452287;28;659383;-59
2020/12/03 13:09:57;;;;;;;91.90;36.50;;;-0.40;99.90;;;;;;4435943;28;659851;-59
2020/12/03 13:12:44;;;;;;;97.33;37.67;;;-0.40;99.90;;;;;;4457214;28;658539;-58
2020/12/03 13:15:31;;;;;;;98.50;36.67;;;-0.40;99.90;;;;;;4447706;28;660371;-59
2020/12/03 13:18:18;;;;;;;102.70;38.83;;;-0.40;99.90;;;;;;4457913;28;659030;-58
2020/12/03 13:21:05;;;;;;;96.10;36.60;;;-0.30;99.90;;;;;;4445050;28;659779;-59
2020/12/03 13:23:53;;;;;;;97.90;38.00;;;-0.30;99.90;;;;;;4457231;28;660416;-58
2020/12/03 13:26:40;;;;;;;95.43;34.47;;;-0.30;99.90;;;;;;4446429;28;659216;-59
2020/12/03 13:29:27;;;;;;;93.10;35.87;;;-0.20;99.90;;;;;;4457961;28;660167;-59
2020/12/03 13:32:14;;;;;;;86.20;31.97;;;-0.30;99.90;;;;;;4449498;28;658570;-60
2020/12/03 13:35:01;;;;;;;79.90;30.17;;;-0.20;99.90;;;;;;4470047;28;658596;-59
2020/12/03 13:37:49;;;;;;;83.10;30.63;;;-0.20;99.90;;;;;;4462418;28;659379;-59
2020/12/03 13:40:36;;;;;;;77.37;30.57;;;-0.20;99.90;;;;;;4442558;28;658719;-60
2020/12/03 13:43:24;;;;;;;76.50;29.67;;;-0.10;99.90;;;;;;4464739;28;660622;-58
2020/12/03 13:46:11;;;;;;;78.90;30.97;;;0.00;99.90;;;;;;4438441;28;658693;-59
2020/12/03 13:48:58;;;;;;;81.37;31.80;;;0.10;99.90;;;;;;4470248;27;658726;-59
2020/12/03 13:51:45;;;;;;;77.77;30.43;;;0.40;99.90;;;;;;4451148;28;657741;-59
2020/12/03 13:54:33;;;;;;;93.70;34.60;;;0.80;99.90;;;;;;4445596;28;659686;-59
2020/12/03 13:57:21;;;;;;;96.50;33.70;;;1.30;99.90;;;;;;4451145;28;658393;-59
2020/12/03 14:00:10;;;;;;;89.57;34.23;;;1.80;99.90;;;;;;4470845;28;658314;-59
2020/12/03 14:02:57;;;;;;;90.03;34.77;;;2.30;99.90;;;;;;4441666;28;659635;-59
2020/12/03 14:05:44;;;;;;;90.90;34.37;;;2.60;99.90;;;;;;4468052;28;657575;-59
2020/12/03 14:08:31;;;;;;;87.57;33.23;;;2.30;99.90;;;;;;4439283;28;657932;-58
2020/12/03 14:11:18;;;;;;;84.57;33.00;;;2.00;99.90;;;;;;4466102;28;658025;-58
2020/12/03 14:14:06;;;;;;;86.10;32.10;;;1.70;99.90;;;;;;4441499;28;658041;-59